Spirit Of New York — WCW9332 — position and weather

sailwx.info

Track history (hours):
 
Tides and Currents Weather Stations Pressure Air Temp Water Temp Dewpoint Dewpoint Depression Visibility Wind Speed Wind Dir Waves Ship Positions

Spirit Of New York

Owner: SPIRIT CRUISES LLC, NEW YORK, NY. More information available from US FCC via Universal Licensing System and Coast Guard Vessel Documentation Center.

Last reported at 2017-Sep-22 01:30 UTC. Time now 2017-Sep-22 06:31 UTC.
Position N 40°45' W 074°01'.

Length 62 m.

Type: Passenger vessel. MMSI: 338897000.

Date/timePositionNaut miles runAvg speedWind from/ knotsBaromVisibWave heightAir tempDewpointWater temp
2017-Sep-22 01:30N 40°45' W 074°01'1 2.8
2017-Sep-22 01:00N 40°44' W 074°01'2 4.5
2017-Sep-22 00:30N 40°41' W 074°02'2 3.3
2017-Sep-22 00:00N 40°42' W 074°00'3 6.9
2017-Sep-21 23:30N 40°45' W 074°01'1 1.0
2017-Sep-21 23:00N 40°45' W 074°01'0 0.0
2017-Sep-21 22:30N 40°45' W 074°01'0 0.0
2017-Sep-21 22:00N 40°45' W 074°01'0 0.0
2017-Sep-21 01:30N 40°45' W 074°01'1 2.9
2017-Sep-21 01:00N 40°44' W 074°01'2 4.5
2017-Sep-21 00:30N 40°41' W 074°02'1 2.8
2017-Sep-21 00:00N 40°42' W 074°00'3 6.6
2017-Sep-20 23:30N 40°45' W 074°01'0 0.7
2017-Sep-20 23:00N 40°45' W 074°01'0 0.0
2017-Sep-20 01:24N 40°45' W 074°01'1 2.3
2017-Sep-20 01:00N 40°44' W 074°01'3 5.0
2017-Sep-20 00:30N 40°42' W 074°02'1 1.9
2017-Sep-20 00:00N 40°43' W 074°02'3 5.9
2017-Sep-19 23:30N 40°45' W 074°01'1 1.2
2017-Sep-19 23:00N 40°45' W 074°01'0 0.0
2017-Sep-19 22:30N 40°45' W 074°01'0 0.0
2017-Sep-19 22:00N 40°45' W 074°01'0 0.0
2017-Sep-18 01:54N 40°45' W 074°01'1 3.7
2017-Sep-18 01:30N 40°43' W 074°01'2 4.6
2017-Sep-18 01:00N 40°41' W 074°02'1 2.5
2017-Sep-18 00:30N 40°42' W 074°01'3 5.7
2017-Sep-18 00:00N 40°45' W 074°01'0 0.8
2017-Sep-17 23:30N 40°45' W 074°01'0 0.0
2017-Sep-17 23:00N 40°45' W 074°01'0 0.0
2017-Sep-17 22:30N 40°45' W 074°01'0 0.0
2017-Sep-17 22:00N 40°45' W 074°01'0 0.0
2017-Sep-17 21:30N 40°45' W 074°01'4 3.5
2017-Sep-17 20:30N 40°42' W 074°02'2 3.5
2017-Sep-17 20:00N 40°43' W 074°02'2 3.7
2017-Sep-17 19:30N 40°45' W 074°01'0 0.0
2017-Sep-17 19:00N 40°45' W 074°01'0 0.0
2017-Sep-17 18:30N 40°45' W 074°01'0 0.0
2017-Sep-17 18:00N 40°45' W 074°01'0 0.0
2017-Sep-17 17:30N 40°45' W 074°01'0 0.0
2017-Sep-17 17:00N 40°45' W 074°01'0 0.0
2017-Sep-17 16:30N 40°45' W 074°01'0 0.0
2017-Sep-17 16:00N 40°45' W 074°01'0 0.0
2017-Sep-17 02:00N 40°45' W 074°01'1 2.3
2017-Sep-17 01:30N 40°44' W 074°01'3 5.1
2017-Sep-17 01:00N 40°41' W 074°02'2 3.7
2017-Sep-17 00:30N 40°42' W 073°60'1 2.6
2017-Sep-17 00:00N 40°43' W 074°01'3 6.1
2017-Sep-16 23:30N 40°46' W 074°00'1 2.2
2017-Sep-16 23:00N 40°45' W 074°01'0 0.0
2017-Sep-16 22:30N 40°45' W 074°01'0 0.0
2017-Sep-16 22:00N 40°45' W 074°01'0 0.0
2017-Sep-16 21:30N 40°45' W 074°01'0 0.0
2017-Sep-16 21:00N 40°45' W 074°01'0 0.0
2017-Sep-16 20:30N 40°45' W 074°01'0 0.0
2017-Sep-16 20:00N 40°45' W 074°01'0 0.0
2017-Sep-16 19:30N 40°45' W 074°01'0 0.0
2017-Sep-16 19:00N 40°45' W 074°01'1 1.6
2017-Sep-16 18:30N 40°46' W 074°01'0 0.0
2017-Sep-16 18:00N 40°46' W 074°01'1 2.2
2017-Sep-16 17:30N 40°44' W 074°01'3 5.4
2017-Sep-16 17:00N 40°42' W 074°02'2 3.1
2017-Sep-16 16:30N 40°42' W 074°00'4 7.1
2017-Sep-16 16:00N 40°46' W 074°01'0 0.0
2017-Sep-16 15:30N 40°46' W 074°01'0 0.0
2017-Sep-16 15:00N 40°46' W 074°01'0 0.1
2017-Sep-16 14:30N 40°46' W 074°01'1 1.5
2017-Sep-16 14:00N 40°45' W 074°01'0 0.0
2017-Sep-16 01:37N 40°45' W 074°01'0 0.0
2017-Sep-16 01:30N 40°45' W 074°01'2 4.8
2017-Sep-16 01:00N 40°43' W 074°01'1 1.7
2017-Sep-16 00:30N 40°42' W 074°01'0 0.5
2017-Sep-16 00:00N 40°42' W 074°01'4 7.6
2017-Sep-15 23:30N 40°46' W 074°01'1 1.8
2017-Sep-15 23:00N 40°45' W 074°01'0 0.0
2017-Sep-15 22:30N 40°45' W 074°01'0 0.0
2017-Sep-15 22:00N 40°45' W 074°01'0 0.0
2017-Sep-15 21:30N 40°45' W 074°01'0 0.0
2017-Sep-15 21:00N 40°45' W 074°01'0 0.0
2017-Sep-15 20:30N 40°45' W 074°01'0 0.0
2017-Sep-15 20:00N 40°45' W 074°01'0 0.0
2017-Sep-15 19:30N 40°45' W 074°01'0 0.0
2017-Sep-15 19:00N 40°45' W 074°01'0 0.0
2017-Sep-15 18:30N 40°45' W 074°01'0 0.0
2017-Sep-15 18:00N 40°45' W 074°01'0 0.0
2017-Sep-15 17:30N 40°45' W 074°01'0 0.0
2017-Sep-15 17:00N 40°45' W 074°01'1 2.1
2017-Sep-15 16:30N 40°44' W 074°01'2 4.6
2017-Sep-15 16:00N 40°42' W 074°02'2 3.1
2017-Sep-15 15:30N 40°42' W 074°00'3 5.0
2017-Sep-15 15:00N 40°45' W 074°01'0 0.8
2017-Sep-15 14:30N 40°45' W 074°01'0 0.0
2017-Sep-15 01:31N 40°45' W 074°01'0 0.4
2017-Sep-15 01:30N 40°45' W 074°01'2 4.3
2017-Sep-15 01:00N 40°43' W 074°01'1 1.9
2017-Sep-15 00:30N 40°42' W 074°01'1 1.4
2017-Sep-15 00:00N 40°43' W 074°01'2 4.9
2017-Sep-14 23:30N 40°45' W 074°01'0 0.0
2017-Sep-14 23:00N 40°45' W 074°01'0 0.0
2017-Sep-14 22:30N 40°45' W 074°01'0 0.0
2017-Sep-14 22:00N 40°45' W 074°01'0 0.0
2017-Sep-14 21:30N 40°45' W 074°01'0 0.0
2017-Sep-14 01:28N 40°45' W 074°01'1 3.3
2017-Sep-14 01:01N 40°43' W 074°01'3 5.3
2017-Sep-14 00:31N 40°41' W 074°03'2 4.1
2017-Sep-14 00:01N 40°42' W 074°00'3 6.4
2017-Sep-13 23:30N 40°45' W 074°01'0 0.7
2017-Sep-13 23:01N 40°45' W 074°01'0 0.0
2017-Sep-13 22:30N 40°45' W 074°01'0 0.0
2017-Sep-13 22:00N 40°45' W 074°01'0 0.0
2017-Sep-13 21:30N 40°45' W 074°01'0 0.0
2017-Sep-13 21:00N 40°45' W 074°01'0 0.0
2017-Sep-13 20:31N 40°45' W 074°01'0 0.0
2017-Sep-13 20:00N 40°45' W 074°01'0 0.0
2017-Sep-13 19:30N 40°45' W 074°01'0 0.0
2017-Sep-13 19:01N 40°45' W 074°01'0 0.0
2017-Sep-13 18:31N 40°45' W 074°01'0 0.0
2017-Sep-13 18:00N 40°45' W 074°01'1 2.9
2017-Sep-13 17:31N 40°44' W 074°01'2 4.4
2017-Sep-13 17:01N 40°42' W 074°02'2 3.0
2017-Sep-13 16:30N 40°43' W 074°01'2 4.2
2017-Sep-13 15:59N 40°45' W 074°01'0 0.0
2017-Sep-12 17:45N 40°45' W 074°01'0 2.0
2017-Sep-12 17:30N 40°44' W 074°01'3 6.7
2017-Sep-12 17:00N 40°41' W 074°02'2 3.9
2017-Sep-12 16:30N 40°42' W 074°00'2 4.6
2017-Sep-12 16:00N 40°44' W 074°01'1 1.2
2017-Sep-12 15:30N 40°45' W 074°01'0 0.0
2017-Sep-12 15:00N 40°45' W 074°01'0 0.0
2017-Sep-12 14:30N 40°45' W 074°01'  
Track history (hours):
 
Tides and Currents Weather Stations Pressure Air Temp Water Temp Dewpoint Dewpoint Depression Visibility Wind Speed Wind Dir Waves Ship Positions

Spirit Of New York

Owner: SPIRIT CRUISES LLC, NEW YORK, NY. More information available from US FCC via Universal Licensing System and Coast Guard Vessel Documentation Center.

Last reported at 2017-Sep-22 01:30 UTC. Time now 2017-Sep-22 06:31 UTC.
Position N 40°45' W 074°01'.

Length 62 m.

Type: Passenger vessel. MMSI: 338897000.

Date/timePositionNaut miles runAvg speedWind from/ knotsBaromVisibWave heightAir tempDewpointWater temp
2017-Sep-22 01:30N 40°45' W 074°01'1 2.8
2017-Sep-22 01:00N 40°44' W 074°01'2 4.5
2017-Sep-22 00:30N 40°41' W 074°02'2 3.3
2017-Sep-22 00:00N 40°42' W 074°00'3 6.9
2017-Sep-21 23:30N 40°45' W 074°01'1 1.0
2017-Sep-21 23:00N 40°45' W 074°01'0 0.0
2017-Sep-21 22:30N 40°45' W 074°01'0 0.0
2017-Sep-21 22:00N 40°45' W 074°01'0 0.0
2017-Sep-21 01:30N 40°45' W 074°01'1 2.9
2017-Sep-21 01:00N 40°44' W 074°01'2 4.5
2017-Sep-21 00:30N 40°41' W 074°02'1 2.8
2017-Sep-21 00:00N 40°42' W 074°00'3 6.6
2017-Sep-20 23:30N 40°45' W 074°01'0 0.7
2017-Sep-20 23:00N 40°45' W 074°01'0 0.0
2017-Sep-20 01:24N 40°45' W 074°01'1 2.3
2017-Sep-20 01:00N 40°44' W 074°01'3 5.0
2017-Sep-20 00:30N 40°42' W 074°02'1 1.9
2017-Sep-20 00:00N 40°43' W 074°02'3 5.9
2017-Sep-19 23:30N 40°45' W 074°01'1 1.2
2017-Sep-19 23:00N 40°45' W 074°01'0 0.0
2017-Sep-19 22:30N 40°45' W 074°01'0 0.0
2017-Sep-19 22:00N 40°45' W 074°01'0 0.0
2017-Sep-18 01:54N 40°45' W 074°01'1 3.7
2017-Sep-18 01:30N 40°43' W 074°01'2 4.6
2017-Sep-18 01:00N 40°41' W 074°02'1 2.5
2017-Sep-18 00:30N 40°42' W 074°01'3 5.7
2017-Sep-18 00:00N 40°45' W 074°01'0 0.8
2017-Sep-17 23:30N 40°45' W 074°01'0 0.0
2017-Sep-17 23:00N 40°45' W 074°01'0 0.0
2017-Sep-17 22:30N 40°45' W 074°01'0 0.0
2017-Sep-17 22:00N 40°45' W 074°01'0 0.0
2017-Sep-17 21:30N 40°45' W 074°01'4 3.5
2017-Sep-17 20:30N 40°42' W 074°02'2 3.5
2017-Sep-17 20:00N 40°43' W 074°02'2 3.7
2017-Sep-17 19:30N 40°45' W 074°01'0 0.0
2017-Sep-17 19:00N 40°45' W 074°01'0 0.0
2017-Sep-17 18:30N 40°45' W 074°01'0 0.0
2017-Sep-17 18:00N 40°45' W 074°01'0 0.0
2017-Sep-17 17:30N 40°45' W 074°01'0 0.0
2017-Sep-17 17:00N 40°45' W 074°01'0 0.0
2017-Sep-17 16:30N 40°45' W 074°01'0 0.0
2017-Sep-17 16:00N 40°45' W 074°01'0 0.0
2017-Sep-17 02:00N 40°45' W 074°01'1 2.3
2017-Sep-17 01:30N 40°44' W 074°01'3 5.1
2017-Sep-17 01:00N 40°41' W 074°02'2 3.7
2017-Sep-17 00:30N 40°42' W 073°60'1 2.6
2017-Sep-17 00:00N 40°43' W 074°01'3 6.1
2017-Sep-16 23:30N 40°46' W 074°00'1 2.2
2017-Sep-16 23:00N 40°45' W 074°01'0 0.0
2017-Sep-16 22:30N 40°45' W 074°01'0 0.0
2017-Sep-16 22:00N 40°45' W 074°01'0 0.0
2017-Sep-16 21:30N 40°45' W 074°01'0 0.0
2017-Sep-16 21:00N 40°45' W 074°01'0 0.0
2017-Sep-16 20:30N 40°45' W 074°01'0 0.0
2017-Sep-16 20:00N 40°45' W 074°01'0 0.0
2017-Sep-16 19:30N 40°45' W 074°01'0 0.0
2017-Sep-16 19:00N 40°45' W 074°01'1 1.6
2017-Sep-16 18:30N 40°46' W 074°01'0 0.0
2017-Sep-16 18:00N 40°46' W 074°01'1 2.2
2017-Sep-16 17:30N 40°44' W 074°01'3 5.4
2017-Sep-16 17:00N 40°42' W 074°02'2 3.1
2017-Sep-16 16:30N 40°42' W 074°00'4 7.1
2017-Sep-16 16:00N 40°46' W 074°01'0 0.0
2017-Sep-16 15:30N 40°46' W 074°01'0 0.0
2017-Sep-16 15:00N 40°46' W 074°01'0 0.1
2017-Sep-16 14:30N 40°46' W 074°01'1 1.5
2017-Sep-16 14:00N 40°45' W 074°01'0 0.0
2017-Sep-16 01:37N 40°45' W 074°01'0 0.0
2017-Sep-16 01:30N 40°45' W 074°01'2 4.8
2017-Sep-16 01:00N 40°43' W 074°01'1 1.7
2017-Sep-16 00:30N 40°42' W 074°01'0 0.5
2017-Sep-16 00:00N 40°42' W 074°01'4 7.6
2017-Sep-15 23:30N 40°46' W 074°01'1 1.8
2017-Sep-15 23:00N 40°45' W 074°01'0 0.0
2017-Sep-15 22:30N 40°45' W 074°01'0 0.0
2017-Sep-15 22:00N 40°45' W 074°01'0 0.0
2017-Sep-15 21:30N 40°45' W 074°01'0 0.0
2017-Sep-15 21:00N 40°45' W 074°01'0 0.0
2017-Sep-15 20:30N 40°45' W 074°01'0 0.0
2017-Sep-15 20:00N 40°45' W 074°01'0 0.0
2017-Sep-15 19:30N 40°45' W 074°01'0 0.0
2017-Sep-15 19:00N 40°45' W 074°01'0 0.0
2017-Sep-15 18:30N 40°45' W 074°01'0 0.0
2017-Sep-15 18:00N 40°45' W 074°01'0 0.0
2017-Sep-15 17:30N 40°45' W 074°01'0 0.0
2017-Sep-15 17:00N 40°45' W 074°01'1 2.1
2017-Sep-15 16:30N 40°44' W 074°01'2 4.6
2017-Sep-15 16:00N 40°42' W 074°02'2 3.1
2017-Sep-15 15:30N 40°42' W 074°00'3 5.0
2017-Sep-15 15:00N 40°45' W 074°01'0 0.8
2017-Sep-15 14:30N 40°45' W 074°01'0 0.0
2017-Sep-15 01:31N 40°45' W 074°01'0 0.4
2017-Sep-15 01:30N 40°45' W 074°01'2 4.3
2017-Sep-15 01:00N 40°43' W 074°01'1 1.9
2017-Sep-15 00:30N 40°42' W 074°01'1 1.4
2017-Sep-15 00:00N 40°43' W 074°01'2 4.9
2017-Sep-14 23:30N 40°45' W 074°01'0 0.0
2017-Sep-14 23:00N 40°45' W 074°01'0 0.0
2017-Sep-14 22:30N 40°45' W 074°01'0 0.0
2017-Sep-14 22:00N 40°45' W 074°01'0 0.0
2017-Sep-14 21:30N 40°45' W 074°01'0 0.0
2017-Sep-14 01:28N 40°45' W 074°01'1 3.3
2017-Sep-14 01:01N 40°43' W 074°01'3 5.3
2017-Sep-14 00:31N 40°41' W 074°03'2 4.1
2017-Sep-14 00:01N 40°42' W 074°00'3 6.4
2017-Sep-13 23:30N 40°45' W 074°01'0 0.7
2017-Sep-13 23:01N 40°45' W 074°01'0 0.0
2017-Sep-13 22:30N 40°45' W 074°01'0 0.0
2017-Sep-13 22:00N 40°45' W 074°01'0 0.0
2017-Sep-13 21:30N 40°45' W 074°01'0 0.0
2017-Sep-13 21:00N 40°45' W 074°01'0 0.0
2017-Sep-13 20:31N 40°45' W 074°01'0 0.0
2017-Sep-13 20:00N 40°45' W 074°01'0 0.0
2017-Sep-13 19:30N 40°45' W 074°01'0 0.0
2017-Sep-13 19:01N 40°45' W 074°01'0 0.0
2017-Sep-13 18:31N 40°45' W 074°01'0 0.0
2017-Sep-13 18:00N 40°45' W 074°01'1 2.9
2017-Sep-13 17:31N 40°44' W 074°01'2 4.4
2017-Sep-13 17:01N 40°42' W 074°02'2 3.0
2017-Sep-13 16:30N 40°43' W 074°01'2 4.2
2017-Sep-13 15:59N 40°45' W 074°01'0 0.0
2017-Sep-12 17:45N 40°45' W 074°01'0 2.0
2017-Sep-12 17:30N 40°44' W 074°01'3 6.7
2017-Sep-12 17:00N 40°41' W 074°02'2 3.9
2017-Sep-12 16:30N 40°42' W 074°00'2 4.6
2017-Sep-12 16:00N 40°44' W 074°01'1 1.2
2017-Sep-12 15:30N 40°45' W 074°01'0 0.0
2017-Sep-12 15:00N 40°45' W 074°01'0 0.0
2017-Sep-12 14:30N 40°45' W 074°01'  

Dump ship's entire track history